sensor_id;sensor_type;location;lat;lon;timestamp;P1;durP1;ratioP1;P2;durP2;ratioP2
50815;SDS011;39717;47.324;8.788;2023-01-24T00:00:07;18.33;;;10.97;;
50815;SDS011;39717;47.324;8.788;2023-01-24T00:02:34;19.57;;;11.07;;
50815;SDS011;39717;47.324;8.788;2023-01-24T00:05:00;18.30;;;10.37;;
50815;SDS011;39717;47.324;8.788;2023-01-24T00:07:26;17.80;;;10.70;;
50815;SDS011;39717;47.324;8.788;2023-01-24T00:09:52;16.87;;;11.17;;
50815;SDS011;39717;47.324;8.788;2023-01-24T00:12:18;17.13;;;10.63;;
50815;SDS011;39717;47.324;8.788;2023-01-24T00:14:44;18.27;;;11.63;;
50815;SDS011;39717;47.324;8.788;2023-01-24T00:17:10;17.23;;;11.03;;
50815;SDS011;39717;47.324;8.788;2023-01-24T00:19:37;16.50;;;11.20;;
50815;SDS011;39717;47.324;8.788;2023-01-24T00:22:03;17.27;;;11.20;;
50815;SDS011;39717;47.324;8.788;2023-01-24T00:24:29;20.63;;;11.83;;
50815;SDS011;39717;47.324;8.788;2023-01-24T00:26:58;20.03;;;11.23;;
50815;SDS011;39717;47.324;8.788;2023-01-24T00:29:24;15.73;;;8.97;;
50815;SDS011;39717;47.324;8.788;2023-01-24T00:31:51;18.77;;;11.00;;
50815;SDS011;39717;47.324;8.788;2023-01-24T00:34:17;17.83;;;10.80;;
50815;SDS011;39717;47.324;8.788;2023-01-24T00:36:43;17.77;;;10.97;;
50815;SDS011;39717;47.324;8.788;2023-01-24T00:39:12;18.20;;;10.90;;
50815;SDS011;39717;47.324;8.788;2023-01-24T00:41:38;16.67;;;8.63;;
50815;SDS011;39717;47.324;8.788;2023-01-24T00:44:04;16.87;;;11.20;;
50815;SDS011;39717;47.324;8.788;2023-01-24T00:46:30;17.83;;;10.67;;
50815;SDS011;39717;47.324;8.788;2023-01-24T00:48:56;16.80;;;9.33;;
50815;SDS011;39717;47.324;8.788;2023-01-24T00:51:23;21.77;;;10.93;;
50815;SDS011;39717;47.324;8.788;2023-01-24T00:53:49;17.73;;;10.67;;
50815;SDS011;39717;47.324;8.788;2023-01-24T00:56:15;17.77;;;10.40;;
50815;SDS011;39717;47.324;8.788;2023-01-24T00:58:41;18.97;;;10.77;;
50815;SDS011;39717;47.324;8.788;2023-01-24T01:01:08;17.63;;;10.07;;
50815;SDS011;39717;47.324;8.788;2023-01-24T01:03:34;19.90;;;10.93;;
50815;SDS011;39717;47.324;8.788;2023-01-24T01:06:01;18.13;;;10.60;;
50815;SDS011;39717;47.324;8.788;2023-01-24T01:08:28;18.03;;;11.43;;
50815;SDS011;39717;47.324;8.788;2023-01-24T01:10:54;16.03;;;10.17;;
50815;SDS011;39717;47.324;8.788;2023-01-24T01:13:20;19.47;;;11.50;;
50815;SDS011;39717;47.324;8.788;2023-01-24T01:15:46;17.23;;;11.63;;
50815;SDS011;39717;47.324;8.788;2023-01-24T01:18:12;16.80;;;10.63;;
50815;SDS011;39717;47.324;8.788;2023-01-24T01:20:38;18.57;;;10.03;;
50815;SDS011;39717;47.324;8.788;2023-01-24T01:23:04;18.03;;;10.63;;
50815;SDS011;39717;47.324;8.788;2023-01-24T01:25:31;19.70;;;10.77;;
50815;SDS011;39717;47.324;8.788;2023-01-24T01:27:57;21.43;;;10.93;;
50815;SDS011;39717;47.324;8.788;2023-01-24T01:30:23;19.60;;;11.73;;
50815;SDS011;39717;47.324;8.788;2023-01-24T01:32:49;17.10;;;10.30;;
50815;SDS011;39717;47.324;8.788;2023-01-24T01:35:15;18.13;;;10.70;;
50815;SDS011;39717;47.324;8.788;2023-01-24T01:37:41;15.23;;;9.47;;
50815;SDS011;39717;47.324;8.788;2023-01-24T01:40:07;18.43;;;10.43;;
50815;SDS011;39717;47.324;8.788;2023-01-24T01:42:39;17.30;;;9.70;;
50815;SDS011;39717;47.324;8.788;2023-01-24T01:47:50;17.50;;;10.40;;
50815;SDS011;39717;47.324;8.788;2023-01-24T01:50:27;15.87;;;10.20;;
50815;SDS011;39717;47.324;8.788;2023-01-24T01:52:55;19.23;;;11.17;;
50815;SDS011;39717;47.324;8.788;2023-01-24T01:55:23;14.30;;;9.57;;
50815;SDS011;39717;47.324;8.788;2023-01-24T01:57:50;18.77;;;11.10;;
50815;SDS011;39717;47.324;8.788;2023-01-24T02:00:18;18.40;;;10.17;;
50815;SDS011;39717;47.324;8.788;2023-01-24T02:02:46;17.60;;;10.33;;
50815;SDS011;39717;47.324;8.788;2023-01-24T02:05:15;17.30;;;10.90;;
50815;SDS011;39717;47.324;8.788;2023-01-24T02:07:59;20.17;;;10.20;;
50815;SDS011;39717;47.324;8.788;2023-01-24T02:10:27;16.70;;;11.00;;
50815;SDS011;39717;47.324;8.788;2023-01-24T02:13:13;15.23;;;9.33;;
50815;SDS011;39717;47.324;8.788;2023-01-24T02:15:39;19.57;;;11.20;;
50815;SDS011;39717;47.324;8.788;2023-01-24T02:18:26;18.10;;;11.00;;
50815;SDS011;39717;47.324;8.788;2023-01-24T02:20:52;18.70;;;10.97;;
50815;SDS011;39717;47.324;8.788;2023-01-24T02:23:21;19.57;;;11.23;;
50815;SDS011;39717;47.324;8.788;2023-01-24T02:25:51;17.40;;;10.77;;
50815;SDS011;39717;47.324;8.788;2023-01-24T02:28:19;16.93;;;11.33;;
50815;SDS011;39717;47.324;8.788;2023-01-24T02:30:45;17.40;;;10.87;;
50815;SDS011;39717;47.324;8.788;2023-01-24T02:33:14;18.13;;;10.67;;
50815;SDS011;39717;47.324;8.788;2023-01-24T02:35:40;17.50;;;10.97;;
50815;SDS011;39717;47.324;8.788;2023-01-24T02:38:09;17.93;;;10.63;;
50815;SDS011;39717;47.324;8.788;2023-01-24T02:40:37;16.03;;;10.37;;
50815;SDS011;39717;47.324;8.788;2023-01-24T02:43:03;23.10;;;12.83;;
50815;SDS011;39717;47.324;8.788;2023-01-24T02:45:31;19.03;;;11.77;;
50815;SDS011;39717;47.324;8.788;2023-01-24T02:47:59;17.53;;;10.43;;
50815;SDS011;39717;47.324;8.788;2023-01-24T02:50:26;18.03;;;9.80;;
50815;SDS011;39717;47.324;8.788;2023-01-24T02:52:52;18.73;;;11.57;;
50815;SDS011;39717;47.324;8.788;2023-01-24T02:55:37;17.60;;;9.83;;
50815;SDS011;39717;47.324;8.788;2023-01-24T02:58:24;15.60;;;9.67;;
50815;SDS011;39717;47.324;8.788;2023-01-24T03:00:50;16.77;;;10.27;;
50815;SDS011;39717;47.324;8.788;2023-01-24T03:03:16;18.07;;;10.07;;
50815;SDS011;39717;47.324;8.788;2023-01-24T03:05:42;16.93;;;10.30;;
50815;SDS011;39717;47.324;8.788;2023-01-24T03:08:21;15.47;;;9.40;;
50815;SDS011;39717;47.324;8.788;2023-01-24T03:10:48;16.90;;;9.83;;
50815;SDS011;39717;47.324;8.788;2023-01-24T03:13:14;21.30;;;11.03;;
50815;SDS011;39717;47.324;8.788;2023-01-24T03:15:59;17.23;;;10.87;;
50815;SDS011;39717;47.324;8.788;2023-01-24T03:18:44;18.93;;;10.47;;
50815;SDS011;39717;47.324;8.788;2023-01-24T03:21:29;17.83;;;10.23;;
50815;SDS011;39717;47.324;8.788;2023-01-24T03:24:13;19.10;;;10.43;;
50815;SDS011;39717;47.324;8.788;2023-01-24T03:26:58;15.37;;;9.67;;
50815;SDS011;39717;47.324;8.788;2023-01-24T03:29:43;18.33;;;10.37;;
50815;SDS011;39717;47.324;8.788;2023-01-24T03:32:27;18.60;;;11.17;;
50815;SDS011;39717;47.324;8.788;2023-01-24T03:35:12;16.70;;;9.60;;
50815;SDS011;39717;47.324;8.788;2023-01-24T03:37:38;17.23;;;11.20;;
50815;SDS011;39717;47.324;8.788;2023-01-24T03:40:23;17.67;;;11.03;;
50815;SDS011;39717;47.324;8.788;2023-01-24T03:42:49;15.73;;;9.50;;
50815;SDS011;39717;47.324;8.788;2023-01-24T03:47:43;14.83;;;10.10;;
50815;SDS011;39717;47.324;8.788;2023-01-24T03:50:11;17.67;;;9.90;;
50815;SDS011;39717;47.324;8.788;2023-01-24T03:52:55;14.77;;;10.03;;
50815;SDS011;39717;47.324;8.788;2023-01-24T03:55:21;17.03;;;10.50;;
50815;SDS011;39717;47.324;8.788;2023-01-24T03:57:49;14.80;;;9.93;;
50815;SDS011;39717;47.324;8.788;2023-01-24T04:00:15;17.87;;;9.60;;
50815;SDS011;39717;47.324;8.788;2023-01-24T04:02:41;15.80;;;9.83;;
50815;SDS011;39717;47.324;8.788;2023-01-24T04:05:08;17.33;;;10.37;;
50815;SDS011;39717;47.324;8.788;2023-01-24T04:07:37;16.73;;;9.30;;
50815;SDS011;39717;47.324;8.788;2023-01-24T04:10:03;14.30;;;8.90;;
50815;SDS011;39717;47.324;8.788;2023-01-24T04:12:29;17.13;;;9.17;;
50815;SDS011;39717;47.324;8.788;2023-01-24T04:14:55;18.90;;;10.70;;
50815;SDS011;39717;47.324;8.788;2023-01-24T04:17:21;18.17;;;10.40;;
50815;SDS011;39717;47.324;8.788;2023-01-24T04:19:48;15.57;;;9.43;;
50815;SDS011;39717;47.324;8.788;2023-01-24T04:22:14;15.63;;;9.93;;
50815;SDS011;39717;47.324;8.788;2023-01-24T04:24:41;19.30;;;10.20;;
50815;SDS011;39717;47.324;8.788;2023-01-24T04:27:07;17.00;;;9.47;;
50815;SDS011;39717;47.324;8.788;2023-01-24T04:29:33;18.27;;;10.13;;
50815;SDS011;39717;47.324;8.788;2023-01-24T04:31:59;17.40;;;9.83;;
50815;SDS011;39717;47.324;8.788;2023-01-24T04:34:25;20.17;;;10.60;;
50815;SDS011;39717;47.324;8.788;2023-01-24T04:36:51;18.97;;;10.60;;
50815;SDS011;39717;47.324;8.788;2023-01-24T04:39:19;20.67;;;11.00;;
50815;SDS011;39717;47.324;8.788;2023-01-24T04:41:45;20.30;;;11.40;;
50815;SDS011;39717;47.324;8.788;2023-01-24T04:44:11;17.73;;;10.77;;
50815;SDS011;39717;47.324;8.788;2023-01-24T04:46:37;18.97;;;9.93;;
50815;SDS011;39717;47.324;8.788;2023-01-24T04:49:03;16.13;;;9.10;;
50815;SDS011;39717;47.324;8.788;2023-01-24T04:51:29;16.40;;;10.53;;
50815;SDS011;39717;47.324;8.788;2023-01-24T04:53:55;17.63;;;9.70;;
50815;SDS011;39717;47.324;8.788;2023-01-24T04:56:21;15.20;;;9.60;;
50815;SDS011;39717;47.324;8.788;2023-01-24T04:58:47;16.43;;;9.60;;
50815;SDS011;39717;47.324;8.788;2023-01-24T05:01:14;18.20;;;9.97;;
50815;SDS011;39717;47.324;8.788;2023-01-24T05:03:40;16.63;;;9.07;;
50815;SDS011;39717;47.324;8.788;2023-01-24T05:06:06;16.73;;;11.10;;
50815;SDS011;39717;47.324;8.788;2023-01-24T05:08:32;17.63;;;9.67;;
50815;SDS011;39717;47.324;8.788;2023-01-24T05:11:01;13.97;;;9.00;;
50815;SDS011;39717;47.324;8.788;2023-01-24T05:13:28;18.87;;;9.97;;
50815;SDS011;39717;47.324;8.788;2023-01-24T05:15:54;17.70;;;9.37;;
50815;SDS011;39717;47.324;8.788;2023-01-24T05:18:20;17.80;;;10.53;;
50815;SDS011;39717;47.324;8.788;2023-01-24T05:20:46;18.27;;;10.53;;
50815;SDS011;39717;47.324;8.788;2023-01-24T05:23:12;18.03;;;10.67;;
50815;SDS011;39717;47.324;8.788;2023-01-24T05:25:38;16.00;;;10.50;;
50815;SDS011;39717;47.324;8.788;2023-01-24T05:28:04;17.60;;;9.87;;
50815;SDS011;39717;47.324;8.788;2023-01-24T05:30:31;16.70;;;9.90;;
50815;SDS011;39717;47.324;8.788;2023-01-24T05:32:57;16.00;;;9.53;;
50815;SDS011;39717;47.324;8.788;2023-01-24T05:35:23;20.03;;;9.80;;
50815;SDS011;39717;47.324;8.788;2023-01-24T05:37:50;16.87;;;10.47;;
50815;SDS011;39717;47.324;8.788;2023-01-24T05:40:16;18.87;;;10.83;;
50815;SDS011;39717;47.324;8.788;2023-01-24T05:42:43;15.37;;;9.67;;
50815;SDS011;39717;47.324;8.788;2023-01-24T05:45:09;17.60;;;10.37;;
50815;SDS011;39717;47.324;8.788;2023-01-24T05:47:36;19.60;;;10.00;;
50815;SDS011;39717;47.324;8.788;2023-01-24T05:50:02;17.50;;;10.63;;
50815;SDS011;39717;47.324;8.788;2023-01-24T05:52:29;18.93;;;10.00;;
50815;SDS011;39717;47.324;8.788;2023-01-24T05:54:56;17.87;;;11.20;;
50815;SDS011;39717;47.324;8.788;2023-01-24T05:57:22;19.17;;;11.17;;
50815;SDS011;39717;47.324;8.788;2023-01-24T05:59:48;18.17;;;10.60;;
50815;SDS011;39717;47.324;8.788;2023-01-24T06:02:14;17.23;;;9.20;;
50815;SDS011;39717;47.324;8.788;2023-01-24T06:04:43;18.30;;;10.77;;
50815;SDS011;39717;47.324;8.788;2023-01-24T06:07:09;18.57;;;10.50;;
50815;SDS011;39717;47.324;8.788;2023-01-24T06:09:35;19.30;;;10.10;;
50815;SDS011;39717;47.324;8.788;2023-01-24T06:12:01;21.53;;;11.77;;
50815;SDS011;39717;47.324;8.788;2023-01-24T06:14:27;18.10;;;10.73;;
50815;SDS011;39717;47.324;8.788;2023-01-24T06:16:53;20.13;;;11.30;;
50815;SDS011;39717;47.324;8.788;2023-01-24T06:19:19;16.53;;;10.53;;
50815;SDS011;39717;47.324;8.788;2023-01-24T06:21:50;17.67;;;10.97;;
50815;SDS011;39717;47.324;8.788;2023-01-24T06:24:22;17.23;;;10.87;;
50815;SDS011;39717;47.324;8.788;2023-01-24T06:26:49;16.60;;;10.80;;
50815;SDS011;39717;47.324;8.788;2023-01-24T06:29:16;21.10;;;11.27;;
50815;SDS011;39717;47.324;8.788;2023-01-24T06:39:35;19.13;;;11.13;;
50815;SDS011;39717;47.324;8.788;2023-01-24T06:42:01;18.27;;;10.60;;
50815;SDS011;39717;47.324;8.788;2023-01-24T06:44:28;17.53;;;9.93;;
50815;SDS011;39717;47.324;8.788;2023-01-24T06:46:54;17.83;;;10.20;;
50815;SDS011;39717;47.324;8.788;2023-01-24T06:49:20;19.00;;;10.57;;
50815;SDS011;39717;47.324;8.788;2023-01-24T06:51:50;18.30;;;11.17;;
50815;SDS011;39717;47.324;8.788;2023-01-24T06:54:16;21.17;;;11.40;;
50815;SDS011;39717;47.324;8.788;2023-01-24T06:56:42;18.33;;;11.40;;
50815;SDS011;39717;47.324;8.788;2023-01-24T06:59:08;18.97;;;11.17;;
50815;SDS011;39717;47.324;8.788;2023-01-24T07:01:34;19.53;;;11.20;;
50815;SDS011;39717;47.324;8.788;2023-01-24T07:04:00;22.13;;;11.47;;
50815;SDS011;39717;47.324;8.788;2023-01-24T07:06:26;20.47;;;11.70;;
50815;SDS011;39717;47.324;8.788;2023-01-24T07:08:53;18.40;;;11.33;;
50815;SDS011;39717;47.324;8.788;2023-01-24T07:11:19;21.17;;;11.33;;
50815;SDS011;39717;47.324;8.788;2023-01-24T07:13:48;19.53;;;11.53;;
50815;SDS011;39717;47.324;8.788;2023-01-24T07:16:14;22.33;;;11.40;;
50815;SDS011;39717;47.324;8.788;2023-01-24T07:18:40;18.83;;;11.53;;
50815;SDS011;39717;47.324;8.788;2023-01-24T07:21:06;19.37;;;11.77;;
50815;SDS011;39717;47.324;8.788;2023-01-24T07:23:33;19.20;;;11.23;;
50815;SDS011;39717;47.324;8.788;2023-01-24T07:26:00;19.40;;;11.27;;
50815;SDS011;39717;47.324;8.788;2023-01-24T07:28:27;20.00;;;12.10;;
50815;SDS011;39717;47.324;8.788;2023-01-24T07:30:53;22.87;;;12.40;;
50815;SDS011;39717;47.324;8.788;2023-01-24T07:33:19;20.63;;;12.20;;
50815;SDS011;39717;47.324;8.788;2023-01-24T07:35:45;21.27;;;12.07;;
50815;SDS011;39717;47.324;8.788;2023-01-24T07:38:12;18.73;;;11.13;;
50815;SDS011;39717;47.324;8.788;2023-01-24T07:40:38;19.70;;;11.50;;
50815;SDS011;39717;47.324;8.788;2023-01-24T07:43:04;19.43;;;10.57;;
50815;SDS011;39717;47.324;8.788;2023-01-24T07:45:31;18.03;;;10.63;;
50815;SDS011;39717;47.324;8.788;2023-01-24T07:47:58;21.40;;;12.57;;
50815;SDS011;39717;47.324;8.788;2023-01-24T07:50:25;19.63;;;10.90;;
50815;SDS011;39717;47.324;8.788;2023-01-24T07:52:52;18.97;;;10.47;;
50815;SDS011;39717;47.324;8.788;2023-01-24T07:55:18;16.40;;;10.17;;
50815;SDS011;39717;47.324;8.788;2023-01-24T07:57:44;18.80;;;10.37;;
50815;SDS011;39717;47.324;8.788;2023-01-24T08:00:10;18.90;;;10.23;;
50815;SDS011;39717;47.324;8.788;2023-01-24T08:02:37;22.10;;;11.03;;
50815;SDS011;39717;47.324;8.788;2023-01-24T08:05:03;16.07;;;10.13;;
50815;SDS011;39717;47.324;8.788;2023-01-24T08:07:29;18.03;;;10.40;;
50815;SDS011;39717;47.324;8.788;2023-01-24T08:09:55;24.17;;;10.83;;
50815;SDS011;39717;47.324;8.788;2023-01-24T08:12:21;21.90;;;9.97;;
50815;SDS011;39717;47.324;8.788;2023-01-24T08:14:47;19.17;;;9.67;;
50815;SDS011;39717;47.324;8.788;2023-01-24T08:17:13;15.43;;;10.13;;
50815;SDS011;39717;47.324;8.788;2023-01-24T08:19:40;18.43;;;9.77;;
50815;SDS011;39717;47.324;8.788;2023-01-24T08:22:06;17.33;;;9.70;;
50815;SDS011;39717;47.324;8.788;2023-01-24T08:24:32;18.13;;;10.77;;
50815;SDS011;39717;47.324;8.788;2023-01-24T08:26:59;14.50;;;9.17;;
50815;SDS011;39717;47.324;8.788;2023-01-24T08:29:26;17.70;;;9.70;;
50815;SDS011;39717;47.324;8.788;2023-01-24T08:31:52;16.90;;;9.20;;
50815;SDS011;39717;47.324;8.788;2023-01-24T08:34:18;17.60;;;9.93;;
50815;SDS011;39717;47.324;8.788;2023-01-24T08:36:44;15.87;;;8.80;;
50815;SDS011;39717;47.324;8.788;2023-01-24T08:39:10;14.80;;;9.27;;
50815;SDS011;39717;47.324;8.788;2023-01-24T08:41:37;16.23;;;8.93;;
50815;SDS011;39717;47.324;8.788;2023-01-24T08:44:03;16.60;;;9.67;;
50815;SDS011;39717;47.324;8.788;2023-01-24T08:46:30;18.80;;;9.43;;
50815;SDS011;39717;47.324;8.788;2023-01-24T08:48:57;13.97;;;8.90;;
50815;SDS011;39717;47.324;8.788;2023-01-24T08:51:23;15.80;;;9.10;;
50815;SDS011;39717;47.324;8.788;2023-01-24T08:53:50;14.80;;;9.33;;
50815;SDS011;39717;47.324;8.788;2023-01-24T08:56:16;15.97;;;9.00;;
50815;SDS011;39717;47.324;8.788;2023-01-24T08:58:42;13.23;;;8.17;;
50815;SDS011;39717;47.324;8.788;2023-01-24T09:01:08;13.67;;;8.27;;
50815;SDS011;39717;47.324;8.788;2023-01-24T09:03:35;17.70;;;8.83;;
50815;SDS011;39717;47.324;8.788;2023-01-24T09:06:02;12.00;;;7.87;;
50815;SDS011;39717;47.324;8.788;2023-01-24T09:08:29;15.23;;;8.60;;
50815;SDS011;39717;47.324;8.788;2023-01-24T09:10:59;15.17;;;8.37;;
50815;SDS011;39717;47.324;8.788;2023-01-24T09:13:25;13.23;;;8.37;;
50815;SDS011;39717;47.324;8.788;2023-01-24T09:15:51;11.70;;;6.93;;
50815;SDS011;39717;47.324;8.788;2023-01-24T09:18:17;14.30;;;7.73;;
50815;SDS011;39717;47.324;8.788;2023-01-24T09:20:44;13.20;;;8.00;;
50815;SDS011;39717;47.324;8.788;2023-01-24T09:23:13;11.80;;;7.53;;
50815;SDS011;39717;47.324;8.788;2023-01-24T09:25:40;12.60;;;7.40;;
50815;SDS011;39717;47.324;8.788;2023-01-24T09:28:07;11.00;;;7.03;;
50815;SDS011;39717;47.324;8.788;2023-01-24T09:30:33;12.37;;;8.07;;
50815;SDS011;39717;47.324;8.788;2023-01-24T09:33:04;13.37;;;7.60;;
50815;SDS011;39717;47.324;8.788;2023-01-24T09:35:30;11.40;;;8.20;;
50815;SDS011;39717;47.324;8.788;2023-01-24T09:37:56;11.47;;;7.13;;
50815;SDS011;39717;47.324;8.788;2023-01-24T09:40:42;18.87;;;8.60;;
50815;SDS011;39717;47.324;8.788;2023-01-24T09:43:20;17.70;;;8.43;;
50815;SDS011;39717;47.324;8.788;2023-01-24T09:45:51;15.13;;;9.27;;
50815;SDS011;39717;47.324;8.788;2023-01-24T09:48:18;15.23;;;8.77;;
50815;SDS011;39717;47.324;8.788;2023-01-24T09:50:52;13.53;;;7.80;;
50815;SDS011;39717;47.324;8.788;2023-01-24T09:53:24;12.90;;;7.83;;
50815;SDS011;39717;47.324;8.788;2023-01-24T09:55:52;12.07;;;7.60;;
50815;SDS011;39717;47.324;8.788;2023-01-24T09:58:35;12.40;;;8.60;;
50815;SDS011;39717;47.324;8.788;2023-01-24T10:01:14;15.03;;;9.23;;
50815;SDS011;39717;47.324;8.788;2023-01-24T10:03:41;14.73;;;8.27;;
50815;SDS011;39717;47.324;8.788;2023-01-24T10:11:46;16.30;;;8.13;;
50815;SDS011;39717;47.324;8.788;2023-01-24T10:14:23;13.87;;;8.60;;
50815;SDS011;39717;47.324;8.788;2023-01-24T10:24:56;15.80;;;10.30;;
50815;SDS011;39717;47.324;8.788;2023-01-24T10:27:26;15.87;;;9.80;;
50815;SDS011;39717;47.324;8.788;2023-01-24T10:29:55;16.10;;;8.83;;
50815;SDS011;39717;47.324;8.788;2023-01-24T10:32:28;16.23;;;9.10;;
50815;SDS011;39717;47.324;8.788;2023-01-24T10:34:59;15.57;;;9.33;;
50815;SDS011;39717;47.324;8.788;2023-01-24T10:37:35;16.80;;;10.00;;
50815;SDS011;39717;47.324;8.788;2023-01-24T10:40:13;13.80;;;8.77;;
50815;SDS011;39717;47.324;8.788;2023-01-24T10:42:40;15.63;;;9.03;;
50815;SDS011;39717;47.324;8.788;2023-01-24T10:47:45;12.20;;;8.20;;
50815;SDS011;39717;47.324;8.788;2023-01-24T10:50:14;16.37;;;8.57;;
50815;SDS011;39717;47.324;8.788;2023-01-24T10:52:41;13.90;;;8.80;;
50815;SDS011;39717;47.324;8.788;2023-01-24T10:55:50;17.37;;;9.27;;
50815;SDS011;39717;47.324;8.788;2023-01-24T10:58:23;14.60;;;8.57;;
50815;SDS011;39717;47.324;8.788;2023-01-24T11:00:47;15.30;;;8.77;;
50815;SDS011;39717;47.324;8.788;2023-01-24T11:03:27;12.63;;;8.40;;
50815;SDS011;39717;47.324;8.788;2023-01-24T11:05:55;14.43;;;8.60;;
50815;SDS011;39717;47.324;8.788;2023-01-24T11:10:55;12.67;;;7.93;;
50815;SDS011;39717;47.324;8.788;2023-01-24T11:16:00;12.23;;;7.77;;
50815;SDS011;39717;47.324;8.788;2023-01-24T11:18:28;14.93;;;9.07;;
50815;SDS011;39717;47.324;8.788;2023-01-24T11:21:11;16.13;;;8.27;;
50815;SDS011;39717;47.324;8.788;2023-01-24T11:23:38;14.73;;;8.93;;
50815;SDS011;39717;47.324;8.788;2023-01-24T11:26:06;13.77;;;8.97;;
50815;SDS011;39717;47.324;8.788;2023-01-24T11:28:36;16.37;;;8.57;;
50815;SDS011;39717;47.324;8.788;2023-01-24T11:31:04;12.67;;;8.27;;
50815;SDS011;39717;47.324;8.788;2023-01-24T11:39:00;18.23;;;9.23;;
50815;SDS011;39717;47.324;8.788;2023-01-24T11:41:34;16.40;;;9.93;;
50815;SDS011;39717;47.324;8.788;2023-01-24T11:59:37;12.83;;;8.53;;
50815;SDS011;39717;47.324;8.788;2023-01-24T12:12:43;14.37;;;8.77;;
50815;SDS011;39717;47.324;8.788;2023-01-24T12:15:16;13.20;;;8.47;;
50815;SDS011;39717;47.324;8.788;2023-01-24T12:22:46;14.30;;;8.40;;
50815;SDS011;39717;47.324;8.788;2023-01-24T12:25:18;11.87;;;8.37;;
50815;SDS011;39717;47.324;8.788;2023-01-24T12:27:49;14.70;;;9.17;;
50815;SDS011;39717;47.324;8.788;2023-01-24T12:30:29;12.17;;;8.30;;
50815;SDS011;39717;47.324;8.788;2023-01-24T12:32:59;11.97;;;8.30;;
50815;SDS011;39717;47.324;8.788;2023-01-24T12:35:29;10.57;;;7.93;;
50815;SDS011;39717;47.324;8.788;2023-01-24T12:40:47;9.97;;;7.97;;
50815;SDS011;39717;47.324;8.788;2023-01-24T12:45:38;11.43;;;8.00;;
50815;SDS011;39717;47.324;8.788;2023-01-24T12:53:23;9.57;;;7.30;;
50815;SDS011;39717;47.324;8.788;2023-01-24T12:55:52;12.30;;;7.70;;
50815;SDS011;39717;47.324;8.788;2023-01-24T12:58:37;10.70;;;8.07;;
50815;SDS011;39717;47.324;8.788;2023-01-24T13:03:50;11.70;;;7.70;;
50815;SDS011;39717;47.324;8.788;2023-01-24T13:08:58;11.30;;;7.90;;
50815;SDS011;39717;47.324;8.788;2023-01-24T13:11:27;10.60;;;7.70;;
50815;SDS011;39717;47.324;8.788;2023-01-24T13:22:06;12.13;;;8.27;;
50815;SDS011;39717;47.324;8.788;2023-01-24T13:32:32;11.40;;;7.90;;
50815;SDS011;39717;47.324;8.788;2023-01-24T13:35:12;13.23;;;8.77;;
50815;SDS011;39717;47.324;8.788;2023-01-24T13:37:41;13.40;;;8.50;;
50815;SDS011;39717;47.324;8.788;2023-01-24T13:42:39;13.90;;;9.37;;
50815;SDS011;39717;47.324;8.788;2023-01-24T13:51:41;13.03;;;8.47;;
50815;SDS011;39717;47.324;8.788;2023-01-24T13:56:23;11.03;;;8.70;;
50815;SDS011;39717;47.324;8.788;2023-01-24T13:58:50;12.43;;;8.33;;
50815;SDS011;39717;47.324;8.788;2023-01-24T14:01:17;12.30;;;8.43;;
50815;SDS011;39717;47.324;8.788;2023-01-24T14:03:53;11.40;;;8.37;;
50815;SDS011;39717;47.324;8.788;2023-01-24T14:06:20;11.23;;;7.67;;
50815;SDS011;39717;47.324;8.788;2023-01-24T14:09:02;11.17;;;7.80;;
50815;SDS011;39717;47.324;8.788;2023-01-24T14:11:31;11.90;;;7.80;;
50815;SDS011;39717;47.324;8.788;2023-01-24T14:14:01;10.37;;;7.40;;
50815;SDS011;39717;47.324;8.788;2023-01-24T14:19:15;15.13;;;9.30;;
50815;SDS011;39717;47.324;8.788;2023-01-24T14:24:18;12.53;;;8.47;;
50815;SDS011;39717;47.324;8.788;2023-01-24T14:26:49;14.37;;;8.67;;
50815;SDS011;39717;47.324;8.788;2023-01-24T14:29:16;13.93;;;8.70;;
50815;SDS011;39717;47.324;8.788;2023-01-24T14:31:44;12.50;;;9.17;;
50815;SDS011;39717;47.324;8.788;2023-01-24T14:34:19;14.17;;;9.33;;
50815;SDS011;39717;47.324;8.788;2023-01-24T14:36:47;14.00;;;9.47;;
50815;SDS011;39717;47.324;8.788;2023-01-24T14:39:25;15.37;;;9.63;;
50815;SDS011;39717;47.324;8.788;2023-01-24T14:42:13;13.43;;;9.20;;
50815;SDS011;39717;47.324;8.788;2023-01-24T14:44:41;11.53;;;8.17;;
50815;SDS011;39717;47.324;8.788;2023-01-24T14:47:19;13.70;;;8.70;;
50815;SDS011;39717;47.324;8.788;2023-01-24T14:49:47;13.30;;;8.70;;
50815;SDS011;39717;47.324;8.788;2023-01-24T14:52:18;15.70;;;9.90;;
50815;SDS011;39717;47.324;8.788;2023-01-24T14:54:52;14.57;;;9.50;;
50815;SDS011;39717;47.324;8.788;2023-01-24T14:57:23;11.93;;;8.53;;
50815;SDS011;39717;47.324;8.788;2023-01-24T15:02:35;16.73;;;9.63;;
50815;SDS011;39717;47.324;8.788;2023-01-24T15:05:01;14.13;;;8.50;;
50815;SDS011;39717;47.324;8.788;2023-01-24T15:07:28;15.80;;;9.27;;
50815;SDS011;39717;47.324;8.788;2023-01-24T15:09:54;15.83;;;8.73;;
50815;SDS011;39717;47.324;8.788;2023-01-24T15:12:31;15.63;;;9.40;;
50815;SDS011;39717;47.324;8.788;2023-01-24T15:14:58;11.20;;;8.23;;
50815;SDS011;39717;47.324;8.788;2023-01-24T15:17:26;13.13;;;8.47;;
50815;SDS011;39717;47.324;8.788;2023-01-24T15:19:54;18.57;;;10.73;;
50815;SDS011;39717;47.324;8.788;2023-01-24T15:22:23;20.07;;;12.87;;
50815;SDS011;39717;47.324;8.788;2023-01-24T15:24:51;15.60;;;8.03;;
50815;SDS011;39717;47.324;8.788;2023-01-24T15:27:22;10.83;;;7.70;;
50815;SDS011;39717;47.324;8.788;2023-01-24T15:30:01;12.03;;;8.10;;
50815;SDS011;39717;47.324;8.788;2023-01-24T15:37:40;12.87;;;7.80;;
50815;SDS011;39717;47.324;8.788;2023-01-24T15:40:17;11.90;;;7.83;;
50815;SDS011;39717;47.324;8.788;2023-01-24T15:42:44;10.97;;;8.07;;
50815;SDS011;39717;47.324;8.788;2023-01-24T15:45:30;13.83;;;7.87;;
50815;SDS011;39717;47.324;8.788;2023-01-24T15:48:14;13.73;;;8.23;;
50815;SDS011;39717;47.324;8.788;2023-01-24T15:50:50;14.27;;;9.40;;
50815;SDS011;39717;47.324;8.788;2023-01-24T15:53:41;13.93;;;8.17;;
50815;SDS011;39717;47.324;8.788;2023-01-24T15:56:09;12.37;;;8.60;;
50815;SDS011;39717;47.324;8.788;2023-01-24T15:58:36;14.33;;;8.60;;
50815;SDS011;39717;47.324;8.788;2023-01-24T16:01:02;12.07;;;8.97;;
50815;SDS011;39717;47.324;8.788;2023-01-24T16:03:29;11.77;;;8.50;;
50815;SDS011;39717;47.324;8.788;2023-01-24T16:05:55;12.73;;;8.70;;
50815;SDS011;39717;47.324;8.788;2023-01-24T16:08:22;11.97;;;8.00;;
50815;SDS011;39717;47.324;8.788;2023-01-24T16:10:50;12.47;;;8.50;;
50815;SDS011;39717;47.324;8.788;2023-01-24T16:13:28;13.40;;;8.57;;
50815;SDS011;39717;47.324;8.788;2023-01-24T16:15:55;14.97;;;9.07;;
50815;SDS011;39717;47.324;8.788;2023-01-24T16:18:22;13.63;;;9.37;;
50815;SDS011;39717;47.324;8.788;2023-01-24T16:20:48;14.53;;;8.70;;
50815;SDS011;39717;47.324;8.788;2023-01-24T16:23:15;13.73;;;8.87;;
50815;SDS011;39717;47.324;8.788;2023-01-24T16:25:41;15.60;;;10.00;;
50815;SDS011;39717;47.324;8.788;2023-01-24T16:28:08;19.53;;;11.20;;
50815;SDS011;39717;47.324;8.788;2023-01-24T16:30:41;14.83;;;9.73;;
50815;SDS011;39717;47.324;8.788;2023-01-24T16:33:07;15.23;;;9.07;;
50815;SDS011;39717;47.324;8.788;2023-01-24T16:35:33;13.47;;;9.47;;
50815;SDS011;39717;47.324;8.788;2023-01-24T16:37:59;12.77;;;8.97;;
50815;SDS011;39717;47.324;8.788;2023-01-24T16:40:26;12.17;;;8.33;;
50815;SDS011;39717;47.324;8.788;2023-01-24T16:42:52;15.00;;;9.73;;
50815;SDS011;39717;47.324;8.788;2023-01-24T16:45:19;15.40;;;9.47;;